Time;durP1;ratioP1;P1;durP2;ratioP2;P2;SDS_P1;SDS_P2;PMS_P1;PMS_P2;Temp;Humidity;BMP_temperature;BMP_pressure;BME280_temperature;BME280_humidity;BME280_pressure;Samples;Min_cycle;Max_cycle;Signal;HPM_P1;HPM_P2
2023/07/16 00:00:04;;;;;;;;;;;;;;;26.87;64.17;99698.25;336827;29;1438;-74
2023/07/16 00:00:15;;;;;;;;;;;;;;;26.88;64.38;99697.25;339125;29;813;-74
2023/07/16 00:00:25;;;;;;;;;;;;;;;26.89;63.97;99696.25;339445;29;789;-74
2023/07/16 00:00:35;;;;;;;;;;;;;;;26.90;64.06;99695.25;335554;29;1191;-74
2023/07/16 00:00:46;;;;;;;;;;;;;;;26.91;64.23;99694.22;336647;29;956;-74
2023/07/16 00:00:56;;;;;;;;;;;;;;;26.91;64.31;99696.91;335664;29;1373;-74
2023/07/16 00:01:06;;;;;;;;;;;;;;;26.83;63.95;99693.25;333131;29;866;-74
2023/07/16 00:01:16;;;;;;;;;;;;;;;26.80;64.48;99696.25;336280;29;1809;-74
2023/07/16 00:01:26;;;;;;;;;;;;;;;26.82;64.25;99698.78;335827;29;1474;-74
2023/07/16 00:01:37;;;;;;;;;;;;;;;26.83;64.53;99695.94;334292;29;1184;-74
2023/07/16 00:01:47;;;;;;;;;;;;;;;26.83;64.61;99695.94;330164;29;1482;-74
2023/07/16 00:01:57;;;;;;;;;;;;;;;26.80;64.21;99696.25;330313;29;2182;-74
2023/07/16 00:02:07;;;;;;;;;;;;;;;26.78;64.19;99697.41;329312;29;1409;-74
2023/07/16 00:02:18;;;;;;;;;;;;;;;26.77;64.32;99695.75;333032;29;858;-74
2023/07/16 00:02:28;;;;;;;;;;;;;;;26.79;64.42;99699.94;333659;29;1187;-74
2023/07/16 00:02:38;;;;;;;;;;;;;;;26.80;64.10;99693.56;334182;29;907;-74
2023/07/16 00:02:48;;;;;;;;;;;;;;;26.79;64.60;99699.09;334410;29;866;-74
2023/07/16 00:02:59;;;;;;;;;;;;;;;26.75;64.25;99698.59;334370;29;1741;-74
2023/07/16 00:03:09;;;;;;;;;;;;;;;26.72;64.73;99698.91;335041;29;4081;-74
2023/07/16 00:03:19;;;;;;;;;;;;;;;26.73;64.72;99694.38;332792;29;3078;-74
2023/07/16 00:03:30;;;;;;;;;;;;;;;26.73;64.98;99697.91;330602;29;5376;-74
2023/07/16 00:03:40;;;;;;;;;;;;;;;26.72;64.74;99693.53;328189;29;4046;-74
2023/07/16 00:03:50;;;;;;;;;;;;;;;26.72;64.86;99696.22;326653;30;4012;-74
2023/07/16 00:04:00;;;;;;;;;;;;;;;26.72;64.67;99698.91;328870;29;2160;-74
2023/07/16 00:04:10;;;;;;;;;;;;;;;26.71;64.83;99697.22;329657;29;2305;-74
2023/07/16 00:04:21;;;;;;;;;;;;;;;26.73;64.46;99699.75;326840;30;1390;-74
2023/07/16 00:04:31;;;;;;;;;;;;;;;26.74;64.50;99701.44;330221;29;1857;-74
2023/07/16 00:04:42;;;;;;;;;;;;;;;26.77;64.63;99695.75;328372;30;1404;-74
2023/07/16 00:04:52;;;;;;;;;;;;;;;26.78;64.71;99703.63;325662;30;886;-74
2023/07/16 00:05:03;;;;;;;;;;;;;;;26.80;64.56;99698.94;318646;31;762;-74
2023/07/16 00:05:13;;;;;;;;;;;;;;;26.82;64.64;99694.25;319019;30;2203;-73
2023/07/16 00:05:23;;;;;;;;;;;;;;;26.84;64.37;99700.28;317908;31;2470;-73
2023/07/16 00:05:34;;;;;;;;;;;;;;;26.86;64.11;99694.72;316377;31;833;-73
2023/07/16 00:05:44;;;;;;;;;;;;;;;26.83;64.55;99700.47;313126;31;2794;-73
2023/07/16 00:05:55;;;;;;;;;;;;;;;26.81;64.34;99699.78;312419;31;2871;-73
2023/07/16 00:06:05;;;;;;;;;;;;;;;26.80;64.72;99698.94;311822;31;755;-73
2023/07/16 00:06:15;;;;;;;;;;;;;;;26.80;64.38;99693.56;309049;31;3263;-74
2023/07/16 00:06:25;;;;;;;;;;;;;;;26.82;64.73;99698.78;309077;31;3057;-73
2023/07/16 00:06:35;;;;;;;;;;;;;;;26.83;64.27;99700.47;311871;31;1356;-73
2023/07/16 00:06:46;;;;;;;;;;;;;;;26.75;64.38;99701.28;311123;31;2399;-73
2023/07/16 00:06:56;;;;;;;;;;;;;;;26.71;64.73;99696.41;309084;31;2051;-73
2023/07/16 00:07:06;;;;;;;;;;;;;;;26.71;64.77;99696.41;309089;31;1001;-73
2023/07/16 00:07:17;;;;;;;;;;;;;;;26.66;65.10;99694.19;310045;31;2718;-75
2023/07/16 00:07:27;;;;;;;;;;;;;;;26.63;64.82;99694.53;310441;31;3283;-74
2023/07/16 00:07:37;;;;;;;;;;;;;;;26.59;64.98;99701.22;307495;31;3790;-74
2023/07/16 00:07:48;;;;;;;;;;;;;;;26.51;65.59;99695.81;307496;32;1258;-74
2023/07/16 00:07:58;;;;;;;;;;;;;;;26.54;65.41;99698.19;305069;32;4091;-74
2023/07/16 00:08:08;;;;;;;;;;;;;;;26.55;65.54;99694.50;300226;32;4329;-74
2023/07/16 00:08:18;;;;;;;;;;;;;;;26.56;65.35;99696.16;301496;32;899;-74
2023/07/16 00:08:29;;;;;;;;;;;;;;;26.56;65.24;99693.50;299929;32;4046;-74
2023/07/16 00:08:39;;;;;;;;;;;;;;;26.58;64.96;99696.84;299799;32;4402;-74
2023/07/16 00:08:49;;;;;;;;;;;;;;;26.61;64.98;99693.00;303292;32;888;-74
2023/07/16 00:08:59;;;;;;;;;;;;;;;26.62;65.35;99692.84;304586;32;3379;-74
2023/07/16 00:09:09;;;;;;;;;;;;;;;26.62;65.02;99692.84;303611;32;3018;-74
2023/07/16 00:09:20;;;;;;;;;;;;;;;26.63;65.02;99699.88;305422;32;808;-74
2023/07/16 00:09:30;;;;;;;;;;;;;;;26.65;65.28;99703.25;304048;32;4018;-73
2023/07/16 00:09:40;;;;;;;;;;;;;;;26.69;64.88;99701.94;301785;32;4991;-73
2023/07/16 00:09:50;;;;;;;;;;;;;;;26.72;64.96;99698.06;300156;32;766;-73
2023/07/16 00:10:01;;;;;;;;;;;;;;;26.71;64.95;99696.41;297977;32;5972;-74
2023/07/16 00:10:12;;;;;;;;;;;;;;;26.72;64.51;99698.91;300365;32;5639;-73
2023/07/16 00:10:22;;;;;;;;;;;;;;;26.72;64.52;99693.53;299758;32;4827;-73
2023/07/16 00:10:34;;;;;;;;;;;;;;;26.71;64.70;99702.59;296667;33;2138;-73
2023/07/16 00:10:44;;;;;;;;;;;;;;;26.69;64.86;99704.59;293892;33;6259;-73
2023/07/16 00:10:55;;;;;;;;;;;;;;;26.70;64.98;99703.59;295214;32;6685;-73
2023/07/16 00:11:05;;;;;;;;;;;;;;;26.73;64.98;99705.97;299924;32;1312;-73
2023/07/16 00:11:15;;;;;;;;;;;;;;;26.73;64.67;99705.13;297269;32;5172;-73
2023/07/16 00:11:26;;;;;;;;;;;;;;;26.75;64.67;99700.44;294427;33;5430;-73
2023/07/16 00:11:36;;;;;;;;;;;;;;;26.72;64.74;99703.44;292797;33;1071;-74
2023/07/16 00:11:46;;;;;;;;;;;;;;;26.67;64.91;99697.72;290862;33;6859;-73
2023/07/16 00:11:56;;;;;;;;;;;;;;;26.65;64.99;99700.56;288932;34;7499;-74
2023/07/16 00:12:08;;;;;;;;;;;;;;;26.66;65.05;99696.88;289289;34;879;-73
2023/07/16 00:13:47;;;;;;;;;;;;;;;26.57;65.53;99697.84;2486400;27;20093;-74
2023/07/16 00:13:57;;;;;;;;;;;;;;;26.60;65.41;99694.84;354738;27;822;-74
2023/07/16 00:14:10;;;;;;;;;;;;;;;26.61;65.43;99696.53;351543;28;1171;-74
2023/07/16 00:14:20;;;;;;;;;;;;;;;26.63;65.14;99704.41;350345;28;875;-74
2023/07/16 00:14:30;;;;;;;;;;;;;;;26.65;65.25;99703.25;347970;28;6974;-74
2023/07/16 00:14:40;;;;;;;;;;;;;;;26.64;65.21;99695.38;347506;28;860;-74
2023/07/16 00:14:50;;;;;;;;;;;;;;;26.59;65.33;99700.38;348396;28;1297;-74
2023/07/16 00:15:01;;;;;;;;;;;;;;;26.52;65.60;99697.50;350327;28;1600;-74
2023/07/16 00:15:11;;;;;;;;;;;;;;;26.52;65.71;99701.03;348902;28;1311;-74
2023/07/16 00:15:21;;;;;;;;;;;;;;;26.51;65.85;99699.34;349687;28;1345;-74
2023/07/16 00:15:31;;;;;;;;;;;;;;;26.52;65.74;99702.88;349829;28;936;-74
2023/07/16 00:15:42;;;;;;;;;;;;;;;26.49;65.81;99701.34;350379;28;997;-74
2023/07/16 00:15:52;;;;;;;;;;;;;;;26.49;65.97;99698.66;347517;28;903;-74
2023/07/16 00:16:02;;;;;;;;;;;;;;;26.47;65.65;99699.81;346119;28;1195;-74
2023/07/16 00:16:13;;;;;;;;;;;;;;;26.48;65.65;99706.88;348407;28;919;-74
2023/07/16 00:16:23;;;;;;;;;;;;;;;26.45;65.85;99705.34;347992;28;1982;-74
2023/07/16 00:16:33;;;;;;;;;;;;;;;26.45;66.07;99705.34;348747;28;1136;-74
2023/07/16 00:16:43;;;;;;;;;;;;;;;26.47;65.92;99705.19;348854;28;1470;-74
2023/07/16 00:16:54;;;;;;;;;;;;;;;26.45;66.02;99700.00;350255;28;867;-74
2023/07/16 00:17:04;;;;;;;;;;;;;;;26.45;65.91;99704.53;349869;28;1513;-74
2023/07/16 00:17:14;;;;;;;;;;;;;;;26.45;65.96;99701.84;349508;28;980;-74
2023/07/16 00:17:24;;;;;;;;;;;;;;;26.42;65.77;99708.41;346741;28;1696;-74
2023/07/16 00:17:34;;;;;;;;;;;;;;;26.44;65.67;99706.34;344789;28;1711;-74
2023/07/16 00:17:45;;;;;;;;;;;;;;;26.48;66.24;99701.50;344661;28;1513;-74
2023/07/16 00:17:55;;;;;;;;;;;;;;;26.49;66.04;99700.50;344409;28;1726;-74
2023/07/16 00:18:05;;;;;;;;;;;;;;;26.49;65.63;99698.66;344925;28;957;-74
2023/07/16 00:18:16;;;;;;;;;;;;;;;26.51;65.85;99704.72;345231;28;780;-74
2023/07/16 00:18:26;;;;;;;;;;;;;;;26.53;65.71;99704.56;344811;28;801;-74
2023/07/16 00:18:36;;;;;;;;;;;;;;;26.52;65.42;99705.56;343123;28;5305;-74
2023/07/16 00:18:46;;;;;;;;;;;;;;;26.47;65.73;99700.66;343135;28;1406;-74
2023/07/16 00:18:56;;;;;;;;;;;;;;;26.45;65.75;99710.72;344821;28;1347;-74
2023/07/16 00:19:09;;;;;;;;;;;;;;;26.47;65.76;99706.03;344712;28;874;-74
2023/07/16 00:19:19;;;;;;;;;;;;;;;26.50;65.79;99705.72;344674;28;1311;-74
2023/07/16 00:19:30;;;;;;;;;;;;;;;26.52;65.82;99697.50;346083;28;1208;-74
2023/07/16 00:19:40;;;;;;;;;;;;;;;26.55;65.63;99702.53;346900;28;1104;-74
2023/07/16 00:19:50;;;;;;;;;;;;;;;26.56;65.61;99701.53;347395;28;1471;-74
2023/07/16 00:20:01;;;;;;;;;;;;;;;26.57;65.46;99705.91;346088;28;1337;-74
2023/07/16 00:20:11;;;;;;;;;;;;;;;26.58;65.72;99702.22;346569;28;796;-74
2023/07/16 00:20:23;;;;;;;;;;;;;;;26.60;65.50;99700.22;341674;28;1503;-74
2023/07/16 00:20:33;;;;;;;;;;;;;;;26.60;65.41;99702.91;342224;28;1355;-74
2023/07/16 00:20:43;;;;;;;;;;;;;;;26.61;65.65;99696.53;343263;28;837;-74
2023/07/16 00:20:54;;;;;;;;;;;;;;;26.62;65.51;99703.56;343569;28;851;-74
2023/07/16 00:21:04;;;;;;;;;;;;;;;26.65;65.31;99705.94;343511;28;1384;-74
2023/07/16 00:21:14;;;;;;;;;;;;;;;26.65;65.16;99702.41;343497;28;1340;-74
2023/07/16 00:21:25;;;;;;;;;;;;;;;26.61;65.41;99706.44;343443;28;1178;-74
2023/07/16 00:21:35;;;;;;;;;;;;;;;26.54;65.49;99700.88;343419;28;1056;-74
2023/07/16 00:21:45;;;;;;;;;;;;;;;26.54;65.81;99703.56;342165;28;1226;-74
2023/07/16 00:21:55;;;;;;;;;;;;;;;26.56;65.55;99698.84;343333;28;1483;-74
2023/07/16 00:22:05;;;;;;;;;;;;;;;26.57;65.68;99700.53;343203;28;1335;-74
2023/07/16 00:22:16;;;;;;;;;;;;;;;26.55;65.61;99702.53;342920;28;828;-74
2023/07/16 00:22:26;;;;;;;;;;;;;;;26.54;65.41;99698.19;343344;28;1361;-74
2023/07/16 00:22:38;;;;;;;;;;;;;;;26.55;65.48;99704.38;343161;28;1472;-73
2023/07/16 00:22:49;;;;;;;;;;;;;;;26.50;65.86;99704.88;340760;29;1427;-73
2023/07/16 00:22:59;;;;;;;;;;;;;;;26.50;65.89;99704.88;338055;29;1345;-73
2023/07/16 00:23:09;;;;;;;;;;;;;;;26.50;65.64;99704.88;340760;29;1409;-74
2023/07/16 00:23:19;;;;;;;;;;;;;;;26.52;65.69;99708.25;340708;29;1445;-74
2023/07/16 00:23:30;;;;;;;;;;;;;;;26.55;65.60;99707.91;340851;29;927;-74
2023/07/16 00:23:40;;;;;;;;;;;;;;;26.58;65.49;99707.59;340524;29;1740;-74
2023/07/16 00:23:50;;;;;;;;;;;;;;;26.59;65.63;99706.59;335036;29;1827;-74
2023/07/16 00:24:00;;;;;;;;;;;;;;;26.58;65.40;99702.22;331951;29;783;-74
2023/07/16 00:24:11;;;;;;;;;;;;;;;26.58;65.72;99707.59;334506;29;1840;-74
2023/07/16 00:24:21;;;;;;;;;;;;;;;26.58;65.60;99706.75;335418;29;1760;-74
2023/07/16 00:24:31;;;;;;;;;;;;;;;26.59;65.69;99711.13;337005;29;888;-74
2023/07/16 00:24:41;;;;;;;;;;;;;;;26.60;65.68;99712.81;335729;29;1899;-74
2023/07/16 00:24:52;;;;;;;;;;;;;;;26.56;65.52;99703.38;335757;29;1592;-74
2023/07/16 00:25:02;;;;;;;;;;;;;;;26.57;65.77;99708.59;336971;29;884;-74
2023/07/16 00:25:12;;;;;;;;;;;;;;;26.59;65.30;99709.28;331927;29;1291;-74
2023/07/16 00:25:23;;;;;;;;;;;;;;;26.59;65.46;99706.59;330401;29;1571;-74
2023/07/16 00:25:34;;;;;;;;;;;;;;;26.56;65.48;99709.59;331751;29;1344;-74
2023/07/16 00:25:45;;;;;;;;;;;;;;;26.57;65.71;99707.75;330659;29;894;-74
2023/07/16 00:25:55;;;;;;;;;;;;;;;26.58;65.53;99701.38;329225;29;2193;-74
2023/07/16 00:26:05;;;;;;;;;;;;;;;26.59;65.25;99703.91;328931;29;2306;-74
2023/07/16 00:26:15;;;;;;;;;;;;;;;26.61;65.14;99707.28;329323;30;1215;-74
2023/07/16 00:26:26;;;;;;;;;;;;;;;26.62;65.20;99703.56;327166;30;2362;-74
2023/07/16 00:26:36;;;;;;;;;;;;;;;26.61;65.48;99711.81;323978;30;2342;-75
2023/07/16 00:26:46;;;;;;;;;;;;;;;26.58;65.29;99706.75;322047;30;1219;-75
2023/07/16 00:26:57;;;;;;;;;;;;;;;26.59;65.70;99703.91;323862;30;2315;-74
2023/07/16 00:27:07;;;;;;;;;;;;;;;26.61;65.50;99707.28;323920;30;2863;-74
2023/07/16 00:27:17;;;;;;;;;;;;;;;26.64;65.18;99706.09;325547;30;2974;-75
2023/07/16 00:27:28;;;;;;;;;;;;;;;26.66;65.34;99709.47;325291;30;3169;-74
2023/07/16 00:27:38;;;;;;;;;;;;;;;26.63;65.57;99709.78;325146;30;2123;-74
2023/07/16 00:27:48;;;;;;;;;;;;;;;26.64;65.18;99703.41;324224;30;5916;-75
2023/07/16 00:27:58;;;;;;;;;;;;;;;26.63;65.46;99705.25;327792;30;2796;-75
2023/07/16 00:28:09;;;;;;;;;;;;;;;26.62;65.20;99708.94;327353;30;2713;-75
2023/07/16 00:28:19;;;;;;;;;;;;;;;26.59;65.17;99705.75;325561;30;1222;-75
2023/07/16 00:28:29;;;;;;;;;;;;;;;26.57;65.28;99711.28;325998;30;3132;-75
2023/07/16 00:28:39;;;;;;;;;;;;;;;26.56;65.32;99706.91;326133;30;3214;-75
2023/07/16 00:28:50;;;;;;;;;;;;;;;26.55;65.29;99702.53;326249;30;2857;-75
2023/07/16 00:29:00;;;;;;;;;;;;;;;26.54;65.46;99703.56;325743;30;939;-75
2023/07/16 00:29:10;;;;;;;;;;;;;;;26.53;65.49;99709.91;323483;30;2768;-75
2023/07/16 00:29:20;;;;;;;;;;;;;;;26.54;65.48;99706.22;324253;30;2040;-75
2023/07/16 00:29:31;;;;;;;;;;;;;;;26.54;65.68;99708.06;324534;30;1242;-75
2023/07/16 00:29:41;;;;;;;;;;;;;;;26.56;65.41;99709.59;323386;30;2356;-75
2023/07/16 00:29:51;;;;;;;;;;;;;;;26.58;65.49;99710.28;321765;30;2959;-75
2023/07/16 00:30:02;;;;;;;;;;;;;;;26.62;65.17;99713.47;319672;30;1233;-75
2023/07/16 00:30:12;;;;;;;;;;;;;;;26.64;65.17;99711.47;321238;30;3577;-75
2023/07/16 00:30:22;;;;;;;;;;;;;;;26.66;65.18;99710.31;320470;30;3895;-75
2023/07/16 00:30:32;;;;;;;;;;;;;;;26.68;65.12;99708.31;316312;31;1222;-75
2023/07/16 00:30:43;;;;;;;;;;;;;;;26.68;65.25;99712.84;319227;30;4102;-75
2023/07/16 00:30:53;;;;;;;;;;;;;;;26.61;65.13;99709.13;318336;30;3797;-75
2023/07/16 00:31:03;;;;;;;;;;;;;;;26.57;65.42;99708.59;318429;31;981;-75
2023/07/16 00:31:13;;;;;;;;;;;;;;;26.52;65.34;99703.72;315362;31;3978;-75
2023/07/16 00:31:24;;;;;;;;;;;;;;;26.52;65.55;99708.25;313670;31;4582;-75
2023/07/16 00:31:34;;;;;;;;;;;;;;;26.49;65.52;99716.63;315367;31;849;-75
2023/07/16 00:31:44;;;;;;;;;;;;;;;26.46;65.67;99716.94;311347;31;2879;-75
2023/07/16 00:31:54;;;;;;;;;;;;;;;26.47;65.53;99707.88;310414;31;3483;-75
2023/07/16 00:32:05;;;;;;;;;;;;;;;26.51;65.91;99711.94;309783;31;4361;-75
2023/07/16 00:32:15;;;;;;;;;;;;;;;26.54;65.68;99705.41;307456;32;1362;-75
2023/07/16 00:32:25;;;;;;;;;;;;;;;26.56;65.48;99709.59;306312;32;5442;-75
2023/07/16 00:32:36;;;;;;;;;;;;;;;26.59;65.69;99714.66;305029;32;6050;-75
2023/07/16 00:32:46;;;;;;;;;;;;;;;26.62;65.48;99708.94;305119;32;1496;-75
2023/07/16 00:32:56;;;;;;;;;;;;;;;26.65;65.06;99707.78;301891;32;5883;-75
2023/07/16 00:33:06;;;;;;;;;;;;;;;26.67;64.96;99716.53;297322;33;5540;-75
2023/07/16 00:33:17;;;;;;;;;;;;;;;26.70;65.03;99711.66;296156;33;802;-75
2023/07/16 00:33:27;;;;;;;;;;;;;;;26.73;65.10;99715.88;294591;33;5505;-75
2023/07/16 00:33:37;;;;;;;;;;;;;;;26.74;65.13;99712.19;295614;32;4987;-75
2023/07/16 00:33:47;;;;;;;;;;;;;;;26.73;64.72;99711.34;301195;32;840;-75
2023/07/16 00:33:58;;;;;;;;;;;;;;;26.71;65.10;99710.66;300118;32;4212;-75
2023/07/16 00:34:08;;;;;;;;;;;;;;;26.72;65.02;99709.66;299282;32;5046;-75
2023/07/16 00:34:18;;;;;;;;;;;;;;;26.72;64.93;99709.66;300153;32;842;-75
2023/07/16 00:34:28;;;;;;;;;;;;;;;26.72;64.85;99712.34;299284;32;5904;-75
2023/07/16 00:34:39;;;;;;;;;;;;;;;26.68;64.90;99712.84;299620;32;7699;-75
2023/07/16 00:34:49;;;;;;;;;;;;;;;26.62;65.30;99708.94;299068;33;1470;-75
2023/07/16 00:35:00;;;;;;;;;;;;;;;26.60;65.35;99712.81;292679;33;8707;-75
2023/07/16 00:35:10;;;;;;;;;;;;;;;26.57;65.38;99711.28;290941;33;8760;-75
2023/07/16 00:35:20;;;;;;;;;;;;;;;26.55;65.41;99712.44;290415;33;9295;-75
2023/07/16 00:35:31;;;;;;;;;;;;;;;26.56;65.35;99714.13;291153;34;792;-75
2023/07/16 00:37:41;;;;;;;;;;;;;;;26.62;64.99;99711.63;2489154;27;19945;-75
2023/07/16 00:37:51;;;;;;;;;;;;;;;26.63;65.47;99705.25;354547;27;1097;-75
2023/07/16 00:38:02;;;;;;;;;;;;;;;26.66;65.10;99709.47;353020;28;1305;-75
2023/07/16 00:38:12;;;;;;;;;;;;;;;26.67;65.04;99714.69;351705;28;1218;-75
2023/07/16 00:38:22;;;;;;;;;;;;;;;26.68;65.25;99710.97;351733;28;1458;-74
2023/07/16 00:38:32;;;;;;;;;;;;;;;26.70;65.22;99714.34;350351;28;796;-74
2023/07/16 00:38:43;;;;;;;;;;;;;;;26.72;65.21;99714.19;347568;28;1663;-74
2023/07/16 00:38:53;;;;;;;;;;;;;;;26.70;65.10;99710.81;348871;28;855;-74
2023/07/16 00:39:03;;;;;;;;;;;;;;;26.70;64.88;99717.03;350737;28;788;-74
2023/07/16 00:39:13;;;;;;;;;;;;;;;26.71;65.18;99717.88;350429;28;855;-74
2023/07/16 00:39:24;;;;;;;;;;;;;;;26.71;64.57;99707.97;350290;28;928;-74
2023/07/16 00:39:34;;;;;;;;;;;;;;;26.69;65.03;99715.34;349227;28;1394;-74
2023/07/16 00:39:44;;;;;;;;;;;;;;;26.67;65.00;99709.31;351706;28;824;-74
2023/07/16 00:39:54;;;;;;;;;;;;;;;26.68;65.19;99710.97;347457;28;1377;-75
2023/07/16 00:40:05;;;;;;;;;;;;;;;26.69;65.07;99709.16;350331;28;902;-75
2023/07/16 00:40:15;;;;;;;;;;;;;;;26.69;64.85;99709.16;350208;28;888;-74
2023/07/16 00:40:25;;;;;;;;;;;;;;;26.65;65.17;99714.00;351680;28;1258;-74
2023/07/16 00:40:36;;;;;;;;;;;;;;;26.64;65.42;99708.78;348875;28;954;-74
2023/07/16 00:40:46;;;;;;;;;;;;;;;26.65;64.85;99708.63;350524;28;942;-74
2023/07/16 00:40:56;;;;;;;;;;;;;;;26.67;65.09;99712.00;350405;28;799;-74
2023/07/16 00:41:06;;;;;;;;;;;;;;;26.67;64.73;99716.53;348426;28;823;-74
2023/07/16 00:41:17;;;;;;;;;;;;;;;26.62;65.05;99714.31;346204;28;1301;-74
2023/07/16 00:41:27;;;;;;;;;;;;;;;26.60;65.19;99713.63;347524;28;1059;-74
2023/07/16 00:41:37;;;;;;;;;;;;;;;26.61;64.96;99715.31;347593;28;927;-74
2023/07/16 00:41:47;;;;;;;;;;;;;;;26.62;64.93;99706.25;348085;28;1300;-74
2023/07/16 00:41:58;;;;;;;;;;;;;;;26.64;65.09;99711.47;348819;28;1367;-75
2023/07/16 00:42:08;;;;;;;;;;;;;;;26.66;65.05;99710.31;349006;28;875;-76
2023/07/16 00:42:18;;;;;;;;;;;;;;;26.68;65.17;99710.97;348842;28;792;-75
2023/07/16 00:42:28;;;;;;;;;;;;;;;26.71;64.83;99713.34;347566;28;1315;-75
2023/07/16 00:42:39;;;;;;;;;;;;;;;26.73;64.52;99714.03;347589;28;800;-74
2023/07/16 00:42:49;;;;;;;;;;;;;;;26.75;64.75;99714.69;347564;28;764;-73
2023/07/16 00:42:59;;;;;;;;;;;;;;;26.78;64.61;99716.22;344725;28;1378;-74
2023/07/16 00:43:10;;;;;;;;;;;;;;;26.79;64.76;99713.38;347174;28;1204;-74
2023/07/16 00:43:20;;;;;;;;;;;;;;;26.80;64.24;99711.53;348898;28;1034;-75
2023/07/16 00:43:30;;;;;;;;;;;;;;;26.80;64.16;99712.38;349113;28;914;-75
2023/07/16 00:43:40;;;;;;;;;;;;;;;26.81;64.64;99714.06;346218;28;1664;-75
2023/07/16 00:43:50;;;;;;;;;;;;;;;26.83;64.47;99717.41;346156;28;908;-74
2023/07/16 00:44:01;;;;;;;;;;;;;;;26.83;64.47;99714.72;344771;28;1235;-75
2023/07/16 00:44:12;;;;;;;;;;;;;;;26.84;64.36;99713.72;343553;28;1226;-75
2023/07/16 00:44:22;;;;;;;;;;;;;;;26.81;64.51;99714.06;343374;28;1222;-75
2023/07/16 00:44:32;;;;;;;;;;;;;;;26.77;64.52;99718.06;343432;28;1261;-75
2023/07/16 00:44:42;;;;;;;;;;;;;;;26.76;64.82;99711.00;344723;28;1228;-74
2023/07/16 00:44:53;;;;;;;;;;;;;;;26.76;64.44;99711.00;344946;28;541;-74
2023/07/16 00:45:03;;;;;;;;;;;;;;;26.77;64.58;99712.69;343920;28;1055;-74
2023/07/16 00:45:14;;;;;;;;;;;;;;;26.77;64.47;99718.06;344797;28;1449;-75
2023/07/16 00:45:24;;;;;;;;;;;;;;;26.78;64.51;99717.06;339612;28;1377;-75
2023/07/16 00:45:34;;;;;;;;;;;;;;;26.79;64.64;99709.84;340979;28;3890;-75
2023/07/16 00:45:45;;;;;;;;;;;;;;;26.80;64.65;99712.38;342128;28;3447;-76
2023/07/16 00:45:55;;;;;;;;;;;;;;;26.80;64.23;99717.75;341743;28;3401;-73
2023/07/16 00:46:05;;;;;;;;;;;;;;;26.82;64.33;99715.72;340583;28;5509;-75
2023/07/16 00:46:15;;;;;;;;;;;;;;;26.80;64.63;99717.75;338115;29;3386;-74
2023/07/16 00:46:26;;;;;;;;;;;;;;;26.82;64.41;99715.72;337994;29;1551;-76
2023/07/16 00:46:36;;;;;;;;;;;;;;;26.83;64.13;99717.41;339565;29;1981;-74
2023/07/16 00:46:46;;;;;;;;;;;;;;;26.84;64.38;99719.09;341110;28;923;-74
2023/07/16 00:46:56;;;;;;;;;;;;;;;26.86;64.41;99715.41;340863;29;1303;-74
2023/07/16 00:47:07;;;;;;;;;;;;;;;26.87;64.27;99711.69;339596;29;869;-75
2023/07/16 00:47:17;;;;;;;;;;;;;;;26.87;64.10;99711.69;337856;29;1399;-73
2023/07/16 00:47:27;;;;;;;;;;;;;;;26.88;64.16;99713.38;335623;29;846;-74
2023/07/16 00:47:39;;;;;;;;;;;;;;;26.89;64.05;99715.03;332062;29;2010;-75
2023/07/16 00:47:49;;;;;;;;;;;;;;;26.83;64.44;99706.66;333091;29;2000;-75
2023/07/16 00:48:00;;;;;;;;;;;;;;;26.74;64.02;99713.03;333098;29;1350;-75
2023/07/16 00:48:10;;;;;;;;;;;;;;;26.69;64.77;99709.16;335265;29;2091;-75
2023/07/16 00:48:20;;;;;;;;;;;;;;;26.65;64.63;99711.31;333515;29;2024;-76
2023/07/16 00:48:30;;;;;;;;;;;;;;;26.62;65.00;99708.94;331637;29;1805;-74
2023/07/16 00:48:41;;;;;;;;;;;;;;;26.59;64.93;99708.44;331848;29;1427;-76
2023/07/16 00:48:52;;;;;;;;;;;;;;;26.57;65.27;99713.13;333648;29;1473;-74
2023/07/16 00:49:03;;;;;;;;;;;;;;;26.57;65.18;99710.44;330211;29;1342;-74
2023/07/16 00:49:13;;;;;;;;;;;;;;;26.59;64.88;99711.97;331908;29;1265;-75
2023/07/16 00:49:23;;;;;;;;;;;;;;;26.60;65.07;99710.97;331761;29;1204;-74
2023/07/16 00:49:34;;;;;;;;;;;;;;;26.59;65.12;99711.97;329903;29;1947;-74
2023/07/16 00:49:44;;;;;;;;;;;;;;;26.60;65.13;99716.31;326893;30;1354;-74
2023/07/16 00:49:54;;;;;;;;;;;;;;;26.61;64.92;99709.94;328468;29;2333;-75
2023/07/16 00:50:05;;;;;;;;;;;;;;;26.61;64.69;99707.28;331634;29;2179;-74
2023/07/16 00:50:15;;;;;;;;;;;;;;;26.62;64.98;99708.09;333065;29;1583;-74
2023/07/16 00:50:25;;;;;;;;;;;;;;;26.62;65.09;99711.63;333750;29;2181;-74
2023/07/16 00:50:39;;;;;;;;;;;;;;;26.63;64.93;99704.41;331424;29;2226;-74
2023/07/16 00:50:49;;;;;;;;;;;;;;;26.65;65.05;99714.00;331163;29;2270;-74
2023/07/16 00:51:00;;;;;;;;;;;;;;;26.68;64.94;99707.47;330656;29;922;-74
2023/07/16 00:51:10;;;;;;;;;;;;;;;26.70;64.62;99711.66;328863;30;1611;-74
2023/07/16 00:51:20;;;;;;;;;;;;;;;26.70;65.32;99711.66;328508;30;1413;-74
2023/07/16 00:51:31;;;;;;;;;;;;;;;26.70;64.61;99710.81;326289;30;1994;-74
2023/07/16 00:51:41;;;;;;;;;;;;;;;26.69;64.53;99717.19;325680;30;776;-74
2023/07/16 00:51:51;;;;;;;;;;;;;;;26.68;64.51;99710.97;328176;29;2381;-74
2023/07/16 00:52:02;;;;;;;;;;;;;;;26.68;64.51;99705.63;329875;29;3181;-74
2023/07/16 00:52:14;;;;;;;;;;;;;;;26.69;64.89;99709.97;328109;30;1321;-74
2023/07/16 00:52:24;;;;;;;;;;;;;;;26.70;64.60;99706.28;322533;30;2923;-74
2023/07/16 00:52:34;;;;;;;;;;;;;;;26.72;64.40;99708.81;324478;30;3373;-75
2023/07/16 00:52:45;;;;;;;;;;;;;;;26.74;64.45;99712.19;327055;30;912;-74
2023/07/16 00:52:55;;;;;;;;;;;;;;;26.71;64.34;99713.34;325316;30;2954;-75
2023/07/16 00:53:06;;;;;;;;;;;;;;;26.70;64.85;99708.97;324707;30;2819;-76
2023/07/16 00:53:16;;;;;;;;;;;;;;;26.69;64.75;99707.28;325167;30;2070;-75
2023/07/16 00:53:26;;;;;;;;;;;;;;;26.67;64.57;99706.63;323314;30;1384;-76
2023/07/16 00:53:37;;;;;;;;;;;;;;;26.67;64.75;99706.63;322877;30;2217;-74
2023/07/16 00:53:47;;;;;;;;;;;;;;;26.67;64.61;99712.00;320205;30;2590;-74
2023/07/16 00:53:57;;;;;;;;;;;;;;;26.68;65.02;99705.63;320071;30;877;-75
2023/07/16 00:54:07;;;;;;;;;;;;;;;26.71;64.51;99710.66;316166;31;3299;-74
2023/07/16 00:54:18;;;;;;;;;;;;;;;26.73;64.63;99710.50;314359;30;4413;-74
2023/07/16 00:54:29;;;;;;;;;;;;;;;26.74;64.55;99704.97;318694;31;888;-76
2023/07/16 00:54:39;;;;;;;;;;;;;;;26.75;64.61;99709.34;317211;31;4146;-75
2023/07/16 00:54:50;;;;;;;;;;;;;;;26.74;64.38;99707.66;315787;31;4354;-75
2023/07/16 00:55:00;;;;;;;;;;;;;;;26.75;64.77;99712.00;313497;31;5068;-74
2023/07/16 00:55:10;;;;;;;;;;;;;;;26.76;64.30;99711.00;315774;31;5365;-74
2023/07/16 00:55:20;;;;;;;;;;;;;;;26.75;64.66;99708.50;316876;30;3818;-74
2023/07/16 00:55:31;;;;;;;;;;;;;;;26.74;64.58;99706.81;313616;31;3156;-74
2023/07/16 00:55:41;;;;;;;;;;;;;;;26.75;64.53;99706.66;311886;31;791;-75
2023/07/16 00:55:51;;;;;;;;;;;;;;;26.76;64.55;99702.97;308566;31;2657;-75
2023/07/16 00:56:01;;;;;;;;;;;;;;;26.77;64.64;99709.16;305458;31;4043;-75
2023/07/16 00:56:11;;;;;;;;;;;;;;;26.75;64.62;99701.28;305214;32;1228;-75
2023/07/16 00:56:22;;;;;;;;;;;;;;;26.74;64.46;99704.97;308281;31;5352;-75
2023/07/16 00:56:32;;;;;;;;;;;;;;;26.73;64.73;99705.97;304852;32;6557;-75
2023/07/16 00:56:42;;;;;;;;;;;;;;;26.71;64.38;99702.59;304216;32;1326;-75
2023/07/16 00:56:52;;;;;;;;;;;;;;;26.70;64.52;99706.28;299951;32;6208;-75
2023/07/16 00:57:03;;;;;;;;;;;;;;;26.68;64.79;99697.56;299045;32;6392;-75
2023/07/16 00:57:13;;;;;;;;;;;;;;;26.68;64.33;99704.78;303175;32;1317;-75
2023/07/16 00:57:23;;;;;;;;;;;;;;;26.67;64.97;99700.41;303819;32;5931;-75
2023/07/16 00:57:34;;;;;;;;;;;;;;;26.67;64.69;99703.94;301690;32;5834;-75
2023/07/16 00:57:44;;;;;;;;;;;;;;;26.68;64.39;99707.47;302255;32;789;-75
2023/07/16 00:57:55;;;;;;;;;;;;;;;26.68;64.69;99699.41;298571;32;4823;-75
2023/07/16 00:58:07;;;;;;;;;;;;;;;26.70;64.46;99702.78;298790;32;4752;-75
2023/07/16 00:58:17;;;;;;;;;;;;;;;26.71;64.78;99702.59;297292;32;5832;-75
2023/07/16 00:58:27;;;;;;;;;;;;;;;26.72;64.30;99698.06;297001;33;1192;-75
2023/07/16 00:58:38;;;;;;;;;;;;;;;26.73;64.52;99705.97;296557;33;8000;-75
2023/07/16 00:58:48;;;;;;;;;;;;;;;26.74;64.30;99704.13;295555;33;9216;-75
2023/07/16 00:58:58;;;;;;;;;;;;;;;26.74;64.38;99707.66;297250;33;834;-75